EDT,Max TemperatureF,Mean TemperatureF,Min TemperatureF,Max Dew PointF,MeanDew PointF,Min DewpointF,Max Humidity, Mean Humidity, Min Humidity, Max Sea Level PressureIn, Mean Sea Level PressureIn, Min Sea Level PressureIn, Max VisibilityMiles, Mean VisibilityMiles, Min VisibilityMiles, Max Wind SpeedMPH, Mean Wind SpeedMPH, Max Gust SpeedMPH,PrecipitationIn, CloudCover, Events, WindDirDegrees
2013-3-1,44,42,37,31,28,25,70,59,49,29.87,29.80,29.72,10,10,10,13,8,20,0.00,7,,301
2013-3-2,37,34,32,25,23,20,70,60,52,29.88,29.85,29.81,10,10,10,12,8,,0.00,6,,300
2013-3-3,37,34,30,23,21,19,67,58,48,29.90,29.84,29.80,10,10,10,15,11,24,0.00,7,,309
2013-3-4,42,36,30,37,19,16,100,53,40,30.03,29.97,29.91,10,10,10,18,12,26,0.00,1,,310
2013-3-5,43,36,28,32,24,17,82,60,40,30.09,30.01,29.84,10,10,10,14,5,,0.00,3,,97
2013-3-6,41,38,34,38,36,29,100,91,67,29.96,29.72,29.61,10,5,2,26,17,40,1.13,8,Rain-Snow,29
2013-3-7,46,42,37,31,28,26,73,57,44,30.14,30.07,29.97,10,10,10,21,14,29,0.00,3,,333
2013-3-8,46,42,37,29,27,25,70,56,48,30.26,30.16,30.12,10,10,10,22,12,31,0.00,4,,328
2013-3-9,51,44,37,33,28,21,79,56,31,30.34,30.29,30.25,10,10,10,13,8,,0.00,0,,329
2013-3-10,57,46,35,41,34,19,96,73,23,30.36,30.30,30.26,10,10,9,14,5,,0.00,1,,146
2013-3-11,55,48,42,49,44,41,100,93,77,30.27,30.16,29.99,10,6,0,17,9,26,0.00,6,Fog,149
2013-3-12,57,50,44,55,49,33,100,89,55,29.96,29.81,29.71,10,6,1,25,15,41,0.89,7,Rain,193
2013-3-13,50,42,35,33,27,17,89,57,29,30.06,29.96,29.90,10,10,7,16,6,25,0.00,2,Rain,285
2013-3-14,45,38,33,20,17,13,56,43,28,30.12,30.07,30.02,10,10,10,20,12,32,0.00,1,,292
2013-3-15,55,44,33,34,22,17,71,45,26,30.09,29.96,29.79,10,10,10,12,5,22,0.00,1,,247
2013-3-16,51,45,39,40,37,35,89,76,63,29.94,29.80,29.68,10,9,7,13,4,23,0.00,7,Rain,59
2013-3-17,41,38,37,35,31,23,93,76,53,30.28,30.11,29.93,10,8,5,13,8,,0.00,5,,23
2013-3-18,39,37,35,39,33,20,100,85,50,30.35,30.13,29.89,10,6,1,14,8,,0.28,8,Rain,63
2013-3-19,55,46,37,42,35,9,100,81,18,29.91,29.80,29.73,10,6,2,15,5,26,0.01,5,Rain,302
2013-3-20,52,44,37,35,18,10,74,38,19,30.00,29.91,29.79,10,10,10,14,8,29,0.00,3,,276
2013-3-21,43,36,30,29,18,10,76,49,34,29.90,29.80,29.75,10,10,10,17,13,26,0.00,5,,323
2013-3-22,46,38,30,24,17,11,55,45,31,30.01,29.93,29.88,10,10,10,15,8,23,0.00,1,,299
2013-3-23,51,40,30,28,23,19,67,50,35,30.04,29.99,29.92,10,10,10,16,6,23,0.00,0,,315
2013-3-24,42,38,34,35,28,20,100,70,46,30.00,29.83,29.69,10,9,5,13,6,,0.00,4,Rain,68
2013-3-25,36,34,33,36,34,32,100,97,89,29.69,29.56,29.51,10,4,0,12,8,,0.65,8,Fog-Rain-Snow,336
2013-3-26,48,40,33,35,31,24,100,69,39,29.96,29.84,29.70,10,9,5,10,6,,0.00,4,,299
2013-3-27,50,44,39,29,28,24,65,52,43,30.10,30.03,29.97,10,10,10,17,10,26,0.00,4,,299
2013-3-28,48,42,37,31,28,25,68,56,41,30.22,30.13,30.09,10,10,10,16,9,25,0.00,5,,299
2013-3-29,54,63,42,40,30,25,82,52,19,30.25,30.20,30.14,10,10,10,12,6,,0.00,5,,310
2013-3-30,54,45,37,40,36,31,82,67,50,30.23,30.18,30.13,10,10,9,10,3,,0.00,3,,126
2013-3-31,54,48,44,51,46,38,100,89,69,30.14,29.88,29.74,10,6,1,20,7,28,0.05,5,Rain,173